Time;durP1;ratioP1;P1;durP2;ratioP2;P2;SDS_P1;SDS_P2;PMS_P1;PMS_P2;Temp;Humidity;BMP_temperature;BMP_pressure;BME280_temperature;BME280_humidity;BME280_pressure;Samples;Min_cycle;Max_cycle;Signal;HPM_P1;HPM_P2
2023/10/21 00:01:57;;;;;;;;;;;9.20;99.90;;;;;;5179937;27;19923;-41
2023/10/21 00:04:23;;;;;;;;;;;9.20;99.90;;;;;;5179644;27;19923;-41
2023/10/21 00:06:49;;;;;;;;;;;9.20;99.90;;;;;;5179398;27;20381;-41
2023/10/21 00:09:14;;;;;;;;;;;9.20;99.90;;;;;;5179370;27;19967;-41
2023/10/21 00:11:40;;;;;;;;;;;9.20;99.90;;;;;;5179374;27;19979;-41
2023/10/21 00:14:06;;;;;;;;;;;9.20;99.90;;;;;;5179532;27;19930;-41
2023/10/21 00:16:32;;;;;;;;;;;9.30;99.90;;;;;;5179489;27;19974;-41
2023/10/21 00:18:58;;;;;;;;;;;9.20;99.90;;;;;;5179209;27;19923;-41
2023/10/21 00:21:23;;;;;;;;;;;9.30;99.90;;;;;;5179386;27;19967;-41
2023/10/21 00:23:49;;;;;;;;;;;9.30;99.90;;;;;;5179208;27;20304;-42
2023/10/21 00:26:17;;;;;;;;;;;9.30;99.90;;;;;;5179103;27;19986;-41
2023/10/21 00:28:43;;;;;;;;;;;9.30;99.90;;;;;;5179166;27;19946;-41
2023/10/21 00:31:08;;;;;;;;;;;9.20;99.90;;;;;;5179146;27;20373;-41
2023/10/21 00:33:34;;;;;;;;;;;9.30;99.90;;;;;;5179046;27;19923;-41
2023/10/21 00:35:59;;;;;;;;;;;9.30;99.90;;;;;;5178978;27;19929;-41
2023/10/21 00:38:25;;;;;;;;;;;9.30;99.90;;;;;;5178852;27;19922;-41
2023/10/21 00:40:52;;;;;;;;;;;9.30;99.90;;;;;;5179091;27;19981;-41
2023/10/21 00:43:34;;;;;;;;;;;9.30;99.90;;;;;;5179144;27;19966;-41
2023/10/21 00:46:13;;;;;;;;;;;9.30;99.90;;;;;;5178770;27;19922;-41
2023/10/21 00:48:39;;;;;;;;;;;9.40;99.90;;;;;;5178951;27;19923;-41
2023/10/21 00:51:05;;;;;;;;;;;9.30;99.90;;;;;;5178705;27;19974;-42
2023/10/21 00:53:31;;;;;;;;;;;9.40;99.90;;;;;;5178691;27;19923;-41
2023/10/21 00:55:57;;;;;;;;;;;9.40;99.90;;;;;;5178680;27;19967;-42
2023/10/21 00:58:25;;;;;;;;;;;9.40;99.90;;;;;;5178606;27;19922;-41
2023/10/21 01:00:51;;;;;;;;;;;9.50;99.90;;;;;;5178459;27;19929;-41
2023/10/21 01:03:16;;;;;;;;;;;9.50;99.90;;;;;;5178438;27;19922;-41
2023/10/21 01:05:42;;;;;;;;;;;9.50;99.90;;;;;;5178240;27;20323;-41
2023/10/21 01:08:08;;;;;;;;;;;9.50;99.90;;;;;;5178382;27;19923;-41
2023/10/21 01:10:33;;;;;;;;;;;9.50;99.90;;;;;;5178415;27;20419;-41
2023/10/21 01:12:59;;;;;;;;;;;9.60;99.90;;;;;;5159892;27;20294;-41
2023/10/21 01:15:24;;;;;;;;;;;9.60;99.90;;;;;;5178119;27;19923;-41
2023/10/21 01:17:50;;;;;;;;;;;9.60;99.90;;;;;;5178179;27;19923;-41
2023/10/21 01:20:17;;;;;;;;;;;9.70;99.90;;;;;;5159757;27;19951;-41
2023/10/21 01:22:45;;;;;;;;;;;9.70;99.90;;;;;;5178258;27;20027;-42
2023/10/21 01:25:11;;;;;;;;;;;9.70;99.90;;;;;;5178309;27;20314;-41
2023/10/21 01:27:36;;;;;;;;;;;9.70;99.90;;;;;;5177860;27;19974;-42
2023/10/21 01:30:05;;;;;;;;;;;9.70;99.90;;;;;;5177979;27;19922;-41
2023/10/21 01:32:31;;;;;;;;;;;9.70;99.90;;;;;;5177842;27;20441;-41
2023/10/21 01:34:57;;;;;;;;;;;9.70;99.90;;;;;;5177553;27;19926;-42
2023/10/21 01:37:22;;;;;;;;;;;9.70;99.90;;;;;;5178049;27;19922;-41
2023/10/21 01:39:48;;;;;;;;;;;9.70;99.90;;;;;;5177716;27;19926;-42
2023/10/21 01:42:13;;;;;;;;;;;9.70;99.90;;;;;;5177996;27;20021;-42
2023/10/21 01:44:39;;;;;;;;;;;9.70;99.90;;;;;;5177617;27;20010;-42
2023/10/21 01:47:05;;;;;;;;;;;9.70;99.90;;;;;;5177497;27;19978;-41
2023/10/21 01:49:31;;;;;;;;;;;9.70;99.90;;;;;;5177522;27;19923;-42
2023/10/21 01:51:57;;;;;;;;;;;9.70;99.90;;;;;;5159198;27;20013;-42
2023/10/21 01:54:23;;;;;;;;;;;9.70;99.90;;;;;;5159361;27;19973;-42
2023/10/21 01:56:48;;;;;;;;;;;9.70;99.90;;;;;;5176664;27;19927;-42
2023/10/21 01:59:14;;;;;;;;;;;9.70;99.90;;;;;;5177369;27;19922;-41
2023/10/21 02:01:40;;;;;;;;;;;9.60;99.90;;;;;;5177313;27;20381;-42
2023/10/21 02:04:06;;;;;;;;;;;9.60;99.90;;;;;;5158860;27;19930;-42
2023/10/21 02:06:31;;;;;;;;;;;9.50;99.90;;;;;;5177238;27;19929;-42
2023/10/21 02:08:57;;;;;;;;;;;9.50;99.90;;;;;;5177149;27;19923;-42
2023/10/21 02:11:24;;;;;;;;;;;9.50;99.90;;;;;;5177095;27;19923;-41
2023/10/21 02:13:49;;;;;;;;;;;9.50;99.90;;;;;;5177187;27;20388;-41
2023/10/21 02:16:15;;;;;;;;;;;9.50;99.90;;;;;;5177000;27;19930;-42
2023/10/21 02:18:41;;;;;;;;;;;9.50;99.90;;;;;;5176848;27;19979;-42
2023/10/21 02:21:06;;;;;;;;;;;9.50;99.90;;;;;;5177319;27;19930;-42
2023/10/21 02:23:32;;;;;;;;;;;9.50;99.90;;;;;;5177014;27;20005;-42
2023/10/21 02:26:02;;;;;;;;;;;9.50;99.90;;;;;;5176892;27;20392;-41
2023/10/21 02:28:27;;;;;;;;;;;9.50;99.90;;;;;;5177081;27;20373;-41
2023/10/21 02:30:53;;;;;;;;;;;9.50;99.90;;;;;;5176937;27;20021;-42
2023/10/21 02:33:18;;;;;;;;;;;9.50;99.90;;;;;;5176571;27;19923;-42
2023/10/21 02:35:45;;;;;;;;;;;9.40;99.90;;;;;;5176849;27;20115;-42
2023/10/21 02:38:10;;;;;;;;;;;9.50;99.90;;;;;;5176789;27;19929;-42
2023/10/21 02:40:40;;;;;;;;;;;9.50;99.90;;;;;;5176807;27;19923;-42
2023/10/21 02:43:06;;;;;;;;;;;9.40;99.90;;;;;;5176785;27;19922;-42
2023/10/21 02:45:31;;;;;;;;;;;9.40;99.90;;;;;;5176734;27;20400;-41
2023/10/21 02:47:57;;;;;;;;;;;9.40;99.90;;;;;;5176214;27;20281;-42
2023/10/21 02:50:22;;;;;;;;;;;9.40;99.90;;;;;;5176604;27;20394;-41
2023/10/21 02:52:51;;;;;;;;;;;9.30;99.90;;;;;;5176509;27;19927;-42
2023/10/21 02:55:16;;;;;;;;;;;9.30;99.90;;;;;;5176604;27;20010;-42
2023/10/21 02:57:42;;;;;;;;;;;9.30;99.90;;;;;;5176439;27;20297;-42
2023/10/21 03:00:10;;;;;;;;;;;9.30;99.90;;;;;;5176500;27;19929;-42
2023/10/21 03:02:37;;;;;;;;;;;9.30;99.90;;;;;;5176368;27;20013;-42
2023/10/21 03:05:03;;;;;;;;;;;9.30;99.90;;;;;;5176773;27;19923;-42
2023/10/21 03:07:29;;;;;;;;;;;9.30;99.90;;;;;;5176520;27;20379;-42
2023/10/21 03:09:54;;;;;;;;;;;9.30;99.90;;;;;;5180744;27;19927;-42
2023/10/21 03:12:20;;;;;;;;;;;9.40;99.90;;;;;;5180798;27;20396;-42
2023/10/21 03:14:45;;;;;;;;;;;9.40;99.90;;;;;;5180668;27;20319;-42
2023/10/21 03:17:13;;;;;;;;;;;9.40;99.90;;;;;;5180594;27;20020;-42
2023/10/21 03:19:38;;;;;;;;;;;9.40;99.90;;;;;;5180568;27;19922;-42
2023/10/21 03:22:04;;;;;;;;;;;9.40;99.90;;;;;;5180720;27;19990;-41
2023/10/21 03:24:29;;;;;;;;;;;9.40;99.90;;;;;;5180440;27;19922;-41
2023/10/21 03:26:55;;;;;;;;;;;9.40;99.90;;;;;;5180275;27;19929;-42
2023/10/21 03:29:20;;;;;;;;;;;9.40;99.90;;;;;;5180399;27;19958;-41
2023/10/21 03:31:46;;;;;;;;;;;9.40;99.90;;;;;;5180208;27;20385;-42
2023/10/21 03:34:12;;;;;;;;;;;9.50;99.90;;;;;;5180455;27;20377;-42
2023/10/21 03:36:37;;;;;;;;;;;9.50;99.90;;;;;;5180297;27;20030;-41
2023/10/21 03:39:03;;;;;;;;;;;9.60;99.90;;;;;;5161842;27;20357;-41
2023/10/21 03:41:28;;;;;;;;;;;9.50;99.90;;;;;;5180157;27;19930;-42
2023/10/21 03:43:54;;;;;;;;;;;9.60;99.90;;;;;;5180106;27;19929;-42
2023/10/21 03:46:20;;;;;;;;;;;9.60;99.90;;;;;;5179521;27;19975;-42
2023/10/21 03:48:46;;;;;;;;;;;9.60;99.90;;;;;;5179991;27;20009;-42
2023/10/21 03:51:11;;;;;;;;;;;9.60;99.90;;;;;;5179909;27;19926;-41
2023/10/21 03:53:41;;;;;;;;;;;9.60;99.90;;;;;;5161550;27;19971;-42
2023/10/21 03:56:07;;;;;;;;;;;9.60;99.90;;;;;;5179773;27;19930;-42
2023/10/21 03:58:32;;;;;;;;;;;9.60;99.90;;;;;;5179708;27;19923;-42
2023/10/21 04:00:58;;;;;;;;;;;9.60;99.90;;;;;;5179584;27;19930;-42
2023/10/21 04:03:26;;;;;;;;;;;9.70;99.90;;;;;;5161108;27;20412;-41
2023/10/21 04:05:55;;;;;;;;;;;9.70;99.90;;;;;;5179616;27;19930;-41
2023/10/21 04:08:21;;;;;;;;;;;9.70;99.90;;;;;;5179488;27;19923;-41
2023/10/21 04:10:47;;;;;;;;;;;9.70;99.90;;;;;;5179440;27;19923;-42
2023/10/21 04:13:12;;;;;;;;;;;9.70;99.90;;;;;;5179599;27;20056;-42
2023/10/21 04:15:38;;;;;;;;;;;9.70;99.90;;;;;;5179406;27;20281;-42
2023/10/21 04:18:04;;;;;;;;;;;9.70;99.90;;;;;;5179385;27;19930;-42
2023/10/21 04:20:31;;;;;;;;;;;9.70;99.90;;;;;;5179242;27;19922;-42
2023/10/21 04:22:57;;;;;;;;;;;9.70;99.90;;;;;;5179341;27;19974;-42
2023/10/21 04:25:23;;;;;;;;;;;9.70;99.90;;;;;;5179264;27;19922;-42
2023/10/21 04:27:49;;;;;;;;;;;9.70;99.90;;;;;;5160317;27;20009;-42
2023/10/21 04:30:15;;;;;;;;;;;9.70;99.90;;;;;;5178971;27;19970;-42
2023/10/21 04:32:40;;;;;;;;;;;9.70;99.90;;;;;;5179339;27;19923;-42
2023/10/21 04:35:08;;;;;;;;;;;9.70;99.90;;;;;;5179062;27;20007;-42
2023/10/21 04:37:33;;;;;;;;;;;9.70;99.90;;;;;;5179066;27;19929;-42
2023/10/21 04:39:59;;;;;;;;;;;9.70;99.90;;;;;;5179015;27;20017;-42
2023/10/21 04:42:25;;;;;;;;;;;9.70;99.90;;;;;;5178877;27;19923;-42
2023/10/21 04:44:52;;;;;;;;;;;9.70;99.90;;;;;;5178699;27;20424;-42
2023/10/21 04:47:17;;;;;;;;;;;9.60;99.90;;;;;;5179088;27;19984;-42
2023/10/21 04:49:43;;;;;;;;;;;9.60;99.90;;;;;;5179108;27;19926;-42
2023/10/21 04:52:12;;;;;;;;;;;9.60;99.90;;;;;;5178913;27;19923;-42
2023/10/21 04:54:38;;;;;;;;;;;9.60;99.90;;;;;;5178691;27;19930;-42
2023/10/21 04:57:03;;;;;;;;;;;9.60;99.90;;;;;;5178644;27;19923;-42
2023/10/21 04:59:29;;;;;;;;;;;9.60;99.90;;;;;;5178475;27;19965;-42
2023/10/21 05:01:55;;;;;;;;;;;9.60;99.90;;;;;;5178547;27;19930;-41
2023/10/21 05:04:21;;;;;;;;;;;9.50;99.90;;;;;;5160130;27;19926;-42
2023/10/21 05:06:47;;;;;;;;;;;9.50;99.90;;;;;;5178515;27;19929;-42
2023/10/21 05:09:12;;;;;;;;;;;9.50;99.90;;;;;;5178221;27;19922;-42
2023/10/21 05:11:38;;;;;;;;;;;9.50;99.90;;;;;;5178321;27;19927;-41
2023/10/21 05:14:03;;;;;;;;;;;9.50;99.90;;;;;;5159488;27;19923;-42
2023/10/21 05:16:29;;;;;;;;;;;9.50;99.90;;;;;;5177930;27;19968;-42
2023/10/21 05:18:55;;;;;;;;;;;9.50;99.90;;;;;;5159928;27;19930;-42
2023/10/21 05:21:20;;;;;;;;;;;9.50;99.90;;;;;;5178176;27;19962;-42
2023/10/21 05:23:46;;;;;;;;;;;9.50;99.90;;;;;;5159795;27;19922;-42
2023/10/21 05:26:12;;;;;;;;;;;9.50;99.90;;;;;;5177780;27;19931;-42
2023/10/21 05:28:37;;;;;;;;;;;9.50;99.90;;;;;;5159510;27;20014;-42
2023/10/21 05:31:03;;;;;;;;;;;9.50;99.90;;;;;;5177088;27;19923;-42
2023/10/21 05:33:29;;;;;;;;;;;9.50;99.90;;;;;;5177918;27;19922;-42
2023/10/21 05:35:57;;;;;;;;;;;9.50;99.90;;;;;;5177876;27;19930;-42
2023/10/21 05:38:24;;;;;;;;;;;9.40;99.90;;;;;;5177749;27;19990;-42
2023/10/21 05:40:50;;;;;;;;;;;9.40;99.90;;;;;;5177536;27;20389;-42
2023/10/21 05:43:15;;;;;;;;;;;9.40;99.90;;;;;;5159262;27;19930;-42
2023/10/21 05:45:41;;;;;;;;;;;9.40;99.90;;;;;;5177664;27;19934;-42
2023/10/21 05:48:06;;;;;;;;;;;9.40;99.90;;;;;;5158656;27;20009;-42
2023/10/21 05:50:32;;;;;;;;;;;9.40;99.90;;;;;;5159554;27;19922;-41
2023/10/21 05:52:58;;;;;;;;;;;9.40;99.90;;;;;;5177530;27;19966;-42
2023/10/21 05:55:23;;;;;;;;;;;9.40;99.90;;;;;;5177302;27;19929;-41
2023/10/21 05:57:49;;;;;;;;;;;9.40;99.90;;;;;;5177270;27;19923;-41
2023/10/21 06:00:15;;;;;;;;;;;9.40;99.90;;;;;;5177389;27;19922;-42
2023/10/21 06:02:41;;;;;;;;;;;9.40;99.90;;;;;;5177344;27;19923;-42
2023/10/21 06:05:06;;;;;;;;;;;9.40;99.90;;;;;;5177244;27;20018;-41
2023/10/21 06:07:32;;;;;;;;;;;9.40;99.90;;;;;;5177201;27;20422;-41
2023/10/21 06:09:58;;;;;;;;;;;9.40;99.90;;;;;;5177123;27;19930;-42
2023/10/21 06:12:24;;;;;;;;;;;9.50;99.90;;;;;;5177036;27;19923;-42
2023/10/21 06:14:50;;;;;;;;;;;9.50;99.90;;;;;;5177211;27;19930;-42
2023/10/21 06:17:16;;;;;;;;;;;9.50;99.90;;;;;;5177086;27;20424;-42
2023/10/21 06:19:43;;;;;;;;;;;9.50;99.90;;;;;;5177071;27;19990;-42
2023/10/21 06:22:09;;;;;;;;;;;9.50;99.90;;;;;;5176838;27;19930;-41
2023/10/21 06:24:34;;;;;;;;;;;9.50;99.90;;;;;;5176975;27;19923;-42
2023/10/21 06:27:00;;;;;;;;;;;9.50;99.90;;;;;;5176645;27;19922;-42
2023/10/21 06:29:26;;;;;;;;;;;9.60;99.90;;;;;;5176936;27;20281;-42
2023/10/21 06:31:52;;;;;;;;;;;9.60;99.90;;;;;;5176949;27;19927;-42
2023/10/21 06:34:17;;;;;;;;;;;9.60;99.90;;;;;;5176862;27;20377;-42
2023/10/21 06:36:43;;;;;;;;;;;9.60;99.90;;;;;;5176856;27;19922;-42
2023/10/21 06:39:08;;;;;;;;;;;9.70;99.90;;;;;;5176757;27;19970;-41
2023/10/21 06:41:34;;;;;;;;;;;9.70;99.90;;;;;;5176453;27;19929;-42
2023/10/21 06:44:00;;;;;;;;;;;9.70;99.90;;;;;;5176784;27;19923;-42
2023/10/21 06:46:27;;;;;;;;;;;9.70;99.90;;;;;;5176483;27;20281;-42
2023/10/21 06:48:53;;;;;;;;;;;9.70;99.90;;;;;;5176894;27;19975;-42
2023/10/21 06:51:19;;;;;;;;;;;9.70;99.90;;;;;;5176438;27;20397;-41
2023/10/21 06:53:45;;;;;;;;;;;9.70;99.90;;;;;;5176674;27;20297;-41
2023/10/21 06:56:12;;;;;;;;;;;9.70;99.90;;;;;;5176520;27;19922;-42
2023/10/21 06:58:39;;;;;;;;;;;9.70;99.90;;;;;;5176605;27;19922;-42
2023/10/21 07:01:05;;;;;;;;;;;9.70;99.90;;;;;;5176330;27;20389;-42
2023/10/21 07:03:31;;;;;;;;;;;9.80;99.90;;;;;;5158153;27;19923;-42
2023/10/21 07:05:56;;;;;;;;;;;9.80;99.90;;;;;;5176463;27;19929;-42
2023/10/21 07:08:23;;;;;;;;;;;9.80;99.90;;;;;;5176272;27;19922;-42
2023/10/21 07:10:49;;;;;;;;;;;9.80;99.90;;;;;;5176206;27;19927;-42
2023/10/21 07:13:14;;;;;;;;;;;9.90;99.90;;;;;;5176454;27;20022;-42
2023/10/21 07:15:40;;;;;;;;;;;9.90;99.90;;;;;;5176421;27;20013;-42
2023/10/21 07:18:07;;;;;;;;;;;9.90;99.90;;;;;;5176378;27;19927;-42
2023/10/21 07:20:34;;;;;;;;;;;9.90;99.90;;;;;;5176258;27;19980;-42
2023/10/21 07:22:59;;;;;;;;;;;9.90;99.90;;;;;;5176150;27;19923;-42
2023/10/21 07:25:25;;;;;;;;;;;10.00;99.90;;;;;;5158041;27;20070;-42
2023/10/21 07:27:50;;;;;;;;;;;10.00;99.90;;;;;;5176166;27;19923;-42
2023/10/21 07:30:16;;;;;;;;;;;10.00;99.90;;;;;;5176254;27;20017;-42
2023/10/21 07:32:42;;;;;;;;;;;10.10;99.90;;;;;;5176172;27;19927;-42
2023/10/21 07:35:07;;;;;;;;;;;10.10;99.90;;;;;;5176240;27;20281;-42
2023/10/21 07:37:33;;;;;;;;;;;10.10;99.90;;;;;;5157869;27;19926;-42
2023/10/21 07:39:58;;;;;;;;;;;10.10;99.90;;;;;;5176023;27;19922;-42
2023/10/21 07:42:25;;;;;;;;;;;10.20;99.90;;;;;;5176175;27;20392;-42
2023/10/21 07:44:51;;;;;;;;;;;10.20;99.90;;;;;;5176447;27;19922;-42
2023/10/21 07:47:16;;;;;;;;;;;10.30;99.90;;;;;;5175727;27;19923;-42
2023/10/21 07:49:42;;;;;;;;;;;10.30;99.90;;;;;;5176062;27;19930;-44
2023/10/21 07:52:09;;;;;;;;;;;10.30;99.90;;;;;;5157344;27;19972;-42
2023/10/21 07:54:37;;;;;;;;;;;10.40;99.90;;;;;;5177797;27;19923;-43
2023/10/21 07:57:03;;;;;;;;;;;10.40;99.90;;;;;;5179852;27;20021;-42
2023/10/21 07:59:29;;;;;;;;;;;10.40;99.90;;;;;;5180064;27;19929;-42
2023/10/21 08:01:55;;;;;;;;;;;10.50;99.90;;;;;;5179386;27;19922;-42
2023/10/21 08:04:20;;;;;;;;;;;10.50;99.90;;;;;;5160812;27;19966;-43
2023/10/21 08:06:46;;;;;;;;;;;10.50;99.90;;;;;;5179104;27;20392;-42
2023/10/21 08:09:16;;;;;;;;;;;10.50;99.90;;;;;;5179264;27;19926;-42
2023/10/21 08:11:43;;;;;;;;;;;10.50;99.90;;;;;;5179599;27;20469;-42
2023/10/21 08:14:09;;;;;;;;;;;10.60;99.90;;;;;;5179512;27;19922;-42
2023/10/21 08:16:35;;;;;;;;;;;10.60;99.90;;;;;;5179405;27;19923;-42
2023/10/21 08:19:02;;;;;;;;;;;10.60;99.90;;;;;;5160435;27;20369;-42
2023/10/21 08:21:27;;;;;;;;;;;10.60;99.90;;;;;;5179214;27;20392;-42
2023/10/21 08:23:53;;;;;;;;;;;10.70;99.90;;;;;;5160744;27;19922;-42
2023/10/21 08:26:19;;;;;;;;;;;10.70;99.90;;;;;;5179200;27;19929;-42
2023/10/21 08:28:44;;;;;;;;;;;10.80;99.90;;;;;;5179154;27;19923;-42
2023/10/21 08:31:10;;;;;;;;;;;10.80;99.90;;;;;;5179079;27;19930;-42
2023/10/21 08:33:35;;;;;;;;;;;10.80;99.90;;;;;;5179353;27;19923;-42
2023/10/21 08:36:01;;;;;;;;;;;10.90;99.90;;;;;;5179200;27;19930;-42
2023/10/21 08:38:27;;;;;;;;;;;10.90;99.90;;;;;;5178739;27;19967;-42
2023/10/21 08:40:53;;;;;;;;;;;10.90;99.90;;;;;;5178858;27;19927;-42
2023/10/21 08:43:19;;;;;;;;;;;11.00;99.90;;;;;;5178986;27;19929;-42
2023/10/21 08:45:45;;;;;;;;;;;11.00;99.90;;;;;;5160696;27;19922;-42
2023/10/21 08:48:12;;;;;;;;;;;11.10;99.90;;;;;;5160083;27;19967;-42
2023/10/21 08:50:38;;;;;;;;;;;11.10;99.90;;;;;;5159739;27;19923;-42
2023/10/21 08:53:11;;;;;;;;;;;11.20;99.90;;;;;;5178267;27;19950;-42
2023/10/21 08:55:37;;;;;;;;;;;11.20;99.90;;;;;;5160056;27;19923;-42
2023/10/21 08:58:03;;;;;;;;;;;11.20;99.90;;;;;;5178736;27;19923;-42
2023/10/21 09:00:29;;;;;;;;;;;11.30;99.90;;;;;;5178406;27;19929;-42
2023/10/21 09:02:55;;;;;;;;;;;11.40;99.90;;;;;;5178248;27;19967;-42
2023/10/21 09:05:21;;;;;;;;;;;11.40;99.90;;;;;;5178196;27;19922;-44
2023/10/21 09:07:47;;;;;;;;;;;11.50;99.90;;;;;;5178317;27;19971;-42
2023/10/21 09:10:13;;;;;;;;;;;11.50;99.90;;;;;;5178544;27;20412;-42
2023/10/21 09:12:39;;;;;;;;;;;11.60;99.90;;;;;;5178314;27;19930;-42
2023/10/21 09:15:06;;;;;;;;;;;11.70;99.90;;;;;;5178441;27;19927;-42
2023/10/21 09:17:39;;;;;;;;;;;11.80;99.90;;;;;;5178266;27;20304;-42
2023/10/21 09:20:13;;;;;;;;;;;11.90;99.90;;;;;;5178166;27;19923;-42
2023/10/21 09:22:40;;;;;;;;;;;11.90;99.90;;;;;;5178219;27;20021;-42
2023/10/21 09:25:16;;;;;;;;;;;11.90;99.90;;;;;;5178225;27;19966;-42
2023/10/21 09:27:42;;;;;;;;;;;12.00;99.90;;;;;;5177938;27;19927;-42
2023/10/21 09:30:12;;;;;;;;;;;12.10;99.90;;;;;;5159429;27;20061;-42
2023/10/21 09:32:38;;;;;;;;;;;12.20;99.90;;;;;;5177683;27;19923;-42
2023/10/21 09:35:13;;;;;;;;;;;12.30;99.90;;;;;;5178519;27;19923;-43
2023/10/21 09:37:38;;;;;;;;;;;12.40;99.90;;;;;;5178225;27;19927;-42
2023/10/21 09:40:06;;;;;;;;;;;12.40;99.90;;;;;;5159409;27;19923;-44
2023/10/21 09:42:41;;;;;;;;;;;12.40;99.90;;;;;;5177679;27;19950;-43
2023/10/21 09:45:08;;;;;;;;;;;12.50;99.90;;;;;;5177654;27;19972;-43
2023/10/21 09:47:36;;;;;;;;;;;12.50;99.90;;;;;;5177423;27;19926;-42
2023/10/21 09:50:05;;;;;;;;;;;12.50;99.90;;;;;;5177506;27;19934;-42
2023/10/21 09:52:35;;;;;;;;;;;12.60;99.90;;;;;;5177467;27;19923;-43
2023/10/21 09:55:07;;;;;;;;;;;12.60;99.90;;;;;;5177517;27;19923;-43
2023/10/21 09:57:36;;;;;;;;;;;12.60;99.90;;;;;;5177393;27;19929;-43
2023/10/21 10:00:03;;;;;;;;;;;12.70;99.90;;;;;;5177484;27;19930;-43
2023/10/21 10:02:30;;;;;;;;;;;12.70;99.90;;;;;;5177392;27;19923;-43
2023/10/21 10:04:57;;;;;;;;;;;12.80;99.90;;;;;;5177308;27;20017;-43
2023/10/21 10:07:23;;;;;;;;;;;12.70;99.90;;;;;;5177119;27;19967;-43
2023/10/21 10:09:48;;;;;;;;;;;12.80;99.90;;;;;;5177127;27;19933;-43
2023/10/21 10:12:14;;;;;;;;;;;12.80;99.90;;;;;;5177098;27;20314;-43
2023/10/21 10:14:41;;;;;;;;;;;12.90;99.90;;;;;;5177891;27;19922;-43
2023/10/21 10:17:06;;;;;;;;;;;12.90;99.90;;;;;;5176578;27;20377;-43
2023/10/21 10:19:35;;;;;;;;;;;13.00;99.90;;;;;;5177460;27;19934;-43
2023/10/21 10:22:15;;;;;;;;;;;13.00;99.90;;;;;;5176963;27;19923;-43
2023/10/21 10:24:45;;;;;;;;;;;13.00;99.90;;;;;;5176783;27;19966;-43
2023/10/21 10:27:11;;;;;;;;;;;13.00;99.90;;;;;;5176873;27;19922;-43
2023/10/21 10:29:37;;;;;;;;;;;13.00;99.90;;;;;;5176878;27;20370;-43
2023/10/21 10:32:15;;;;;;;;;;;13.00;99.90;;;;;;5177307;27;19929;-42
2023/10/21 10:34:53;;;;;;;;;;;13.00;99.90;;;;;;5176767;27;20393;-43
2023/10/21 10:37:35;;;;;;;;;;;13.00;99.90;;;;;;5176664;27;20315;-43
2023/10/21 10:40:13;;;;;;;;;;;13.00;99.90;;;;;;5158175;27;19922;-43
2023/10/21 10:42:39;;;;;;;;;;;13.00;99.90;;;;;;5176736;27;20026;-43
2023/10/21 10:45:06;;;;;;;;;;;13.00;99.90;;;;;;5176573;27;19922;-43
2023/10/21 10:47:32;;;;;;;;;;;13.00;99.90;;;;;;5176237;27;19926;-43
2023/10/21 10:49:58;;;;;;;;;;;13.00;99.90;;;;;;5176440;27;20422;-43
2023/10/21 10:52:27;;;;;;;;;;;13.00;99.90;;;;;;5176601;27;19974;-43
2023/10/21 10:54:53;;;;;;;;;;;13.10;99.90;;;;;;5176342;27;19927;-43
2023/10/21 10:57:20;;;;;;;;;;;13.00;99.90;;;;;;5176541;27;19938;-43
2023/10/21 10:59:47;;;;;;;;;;;13.00;99.90;;;;;;5176389;27;19929;-43
2023/10/21 11:02:14;;;;;;;;;;;13.10;99.90;;;;;;5176430;27;19949;-43
2023/10/21 11:04:44;;;;;;;;;;;13.10;99.90;;;;;;5176527;27;19933;-43
2023/10/21 11:07:12;;;;;;;;;;;13.10;99.90;;;;;;5176406;27;20389;-43
2023/10/21 11:09:38;;;;;;;;;;;13.10;99.90;;;;;;5176529;27;20021;-42
2023/10/21 11:12:04;;;;;;;;;;;13.10;99.90;;;;;;5176400;27;19995;-42
2023/10/21 11:14:29;;;;;;;;;;;13.10;99.90;;;;;;5176406;27;19930;-42
2023/10/21 11:16:55;;;;;;;;;;;13.10;99.90;;;;;;5176346;27;19923;-43
2023/10/21 11:19:22;;;;;;;;;;;13.20;99.90;;;;;;5176446;27;20277;-42
2023/10/21 11:21:48;;;;;;;;;;;13.20;99.90;;;;;;5176387;27;19927;-42
2023/10/21 11:24:14;;;;;;;;;;;13.20;99.90;;;;;;5158026;27;20384;-43
2023/10/21 11:26:41;;;;;;;;;;;13.20;99.90;;;;;;5176205;27;19978;-43
2023/10/21 11:29:06;;;;;;;;;;;13.20;99.90;;;;;;5177295;27;19923;-43
2023/10/21 11:31:35;;;;;;;;;;;13.30;99.90;;;;;;5180097;27;20038;-43
2023/10/21 11:34:14;;;;;;;;;;;13.20;99.90;;;;;;5180403;27;19991;-43
2023/10/21 11:36:49;;;;;;;;;;;13.10;99.90;;;;;;5180159;27;19929;-43
2023/10/21 11:39:15;;;;;;;;;;;13.00;99.90;;;;;;5161746;27;19929;-44
2023/10/21 11:41:41;;;;;;;;;;;13.00;99.90;;;;;;5161635;27;19943;-44
2023/10/21 11:44:08;;;;;;;;;;;13.00;99.90;;;;;;5179802;27;19929;-44
2023/10/21 11:46:36;;;;;;;;;;;13.00;99.90;;;;;;5180360;27;19982;-43
2023/10/21 11:49:04;;;;;;;;;;;13.00;99.90;;;;;;5179961;27;20408;-43
2023/10/21 11:51:30;;;;;;;;;;;13.10;99.90;;;;;;5179934;27;19923;-44
2023/10/21 11:53:56;;;;;;;;;;;13.20;99.90;;;;;;5180116;27;19922;-43
2023/10/21 12:00:41;;;;;;;;;;;13.20;99.90;;;;;;5179860;27;19981;-43
2023/10/21 12:03:29;;;;;;;;;;;13.20;99.90;;;;;;5179374;27;19923;-44
2023/10/21 12:31:50;;;;;;;;;;;13.10;99.90;;;;;;5178966;27;20440;-43
2023/10/21 12:34:29;;;;;;;;;;;13.10;99.90;;;;;;5178997;27;19930;-44
2023/10/21 12:39:20;;;;;;;;;;;13.10;99.90;;;;;;5178815;27;19930;-43
2023/10/21 12:41:52;;;;;;;;;;;13.20;99.90;;;;;;5178771;27;19923;-43
2023/10/21 12:44:23;;;;;;;;;;;13.20;99.90;;;;;;5178967;27;20022;-44
2023/10/21 12:47:00;;;;;;;;;;;13.20;99.90;;;;;;5160090;27;19923;-43
2023/10/21 12:49:28;;;;;;;;;;;13.20;99.90;;;;;;5178944;27;20448;-43
2023/10/21 12:51:54;;;;;;;;;;;13.30;99.90;;;;;;5178654;27;19930;-43
2023/10/21 12:54:20;;;;;;;;;;;13.40;99.90;;;;;;5178625;27;19923;-43
2023/10/21 12:56:45;;;;;;;;;;;13.50;99.90;;;;;;5178607;27;19923;-43
2023/10/21 12:59:11;;;;;;;;;;;13.60;99.90;;;;;;5178428;27;20028;-43
2023/10/21 13:01:40;;;;;;;;;;;13.70;99.90;;;;;;5178621;27;19970;-43
2023/10/21 13:04:05;;;;;;;;;;;13.70;99.90;;;;;;5178627;27;19977;-43
2023/10/21 13:06:32;;;;;;;;;;;13.70;99.90;;;;;;5178434;27;19923;-43
2023/10/21 13:08:57;;;;;;;;;;;13.70;99.90;;;;;;5178392;27;20006;-43
2023/10/21 13:11:23;;;;;;;;;;;13.70;99.90;;;;;;5178903;27;19973;-43
2023/10/21 13:13:50;;;;;;;;;;;13.70;99.90;;;;;;5178206;27;19962;-44
2023/10/21 13:16:16;;;;;;;;;;;13.70;99.90;;;;;;5160106;27;19926;-42
2023/10/21 13:18:42;;;;;;;;;;;13.70;99.90;;;;;;5178318;27;20017;-44
2023/10/21 13:21:07;;;;;;;;;;;13.80;99.90;;;;;;5178189;27;19974;-43
2023/10/21 13:23:36;;;;;;;;;;;13.90;99.90;;;;;;5159794;27;20452;-43
2023/10/21 13:26:06;;;;;;;;;;;13.80;99.90;;;;;;5178208;27;20274;-43
2023/10/21 13:28:36;;;;;;;;;;;13.90;99.90;;;;;;5159177;27;19927;-43
2023/10/21 13:31:02;;;;;;;;;;;13.90;99.90;;;;;;5178307;27;19926;-45
2023/10/21 13:33:28;;;;;;;;;;;13.90;99.90;;;;;;5178456;27;19946;-44
2023/10/21 13:35:54;;;;;;;;;;;13.90;99.90;;;;;;5177808;27;20377;-44
2023/10/21 13:38:22;;;;;;;;;;;13.90;99.90;;;;;;5177842;27;20326;-43
2023/10/21 13:40:51;;;;;;;;;;;13.80;99.90;;;;;;5159309;27;20006;-44
2023/10/21 13:43:17;;;;;;;;;;;13.80;99.90;;;;;;5177734;27;19923;-43
2023/10/21 13:45:43;;;;;;;;;;;13.80;99.90;;;;;;5177906;27;19930;-43
2023/10/21 13:48:09;;;;;;;;;;;13.80;99.90;;;;;;5177293;27;19946;-43
2023/10/21 13:50:36;;;;;;;;;;;13.80;99.90;;;;;;5177406;27;20388;-43
2023/10/21 13:53:10;;;;;;;;;;;13.70;99.90;;;;;;5176616;27;19927;-43
2023/10/21 13:55:36;;;;;;;;;;;13.70;99.90;;;;;;5177304;27;19930;-44
2023/10/21 13:58:02;;;;;;;;;;;13.70;99.90;;;;;;5177785;27;19926;-43
2023/10/21 14:00:34;;;;;;;;;;;13.70;99.90;;;;;;5177740;27;20342;-43
2023/10/21 14:03:08;;;;;;;;;;;13.70;99.90;;;;;;5177643;27;20017;-43
2023/10/21 14:05:42;;;;;;;;;;;13.70;99.90;;;;;;5177352;27;19923;-43
2023/10/21 14:08:08;;;;;;;;;;;13.70;99.90;;;;;;5158391;27;19975;-44
2023/10/21 14:10:36;;;;;;;;;;;13.70;99.90;;;;;;5158854;27;20405;-44
2023/10/21 14:13:02;;;;;;;;;;;13.80;99.90;;;;;;5177157;27;19927;-43
2023/10/21 14:15:28;;;;;;;;;;;13.80;99.90;;;;;;5177453;27;19945;-43
2023/10/21 14:17:54;;;;;;;;;;;13.90;99.90;;;;;;5176933;27;19980;-44
2023/10/21 14:20:19;;;;;;;;;;;13.90;99.90;;;;;;5176921;27;19929;-43
2023/10/21 14:22:45;;;;;;;;;;;13.90;99.90;;;;;;5176850;27;20041;-43
2023/10/21 14:25:10;;;;;;;;;;;13.90;99.90;;;;;;5177081;27;19922;-44
2023/10/21 14:27:37;;;;;;;;;;;13.90;99.90;;;;;;5176738;27;19922;-43
2023/10/21 14:30:08;;;;;;;;;;;13.90;99.90;;;;;;5176916;27;20005;-43
2023/10/21 14:32:34;;;;;;;;;;;14.00;99.90;;;;;;5176974;27;19923;-43
2023/10/21 14:35:00;;;;;;;;;;;13.90;99.90;;;;;;5176771;27;19923;-44
2023/10/21 14:37:26;;;;;;;;;;;13.90;99.90;;;;;;5176591;27;20289;-44
2023/10/21 14:39:52;;;;;;;;;;;13.90;99.90;;;;;;5158455;27;20009;-44
2023/10/21 14:42:17;;;;;;;;;;;13.90;99.90;;;;;;5176663;27;20014;-44
2023/10/21 14:44:45;;;;;;;;;;;13.80;99.90;;;;;;5176491;27;19946;-43
2023/10/21 14:47:11;;;;;;;;;;;13.80;99.90;;;;;;5176425;27;20328;-43
2023/10/21 14:49:36;;;;;;;;;;;13.70;99.90;;;;;;5176550;27;19923;-43
2023/10/21 14:52:02;;;;;;;;;;;13.70;99.90;;;;;;5176315;27;19933;-44
2023/10/21 14:54:29;;;;;;;;;;;13.70;99.90;;;;;;5176682;27;19923;-43